sensor_id;sensor_type;location;lat;lon;timestamp;P1;durP1;ratioP1;P2;durP2;ratioP2
20348;SDS011;10332;50.208;18.988;2022-07-26T00:01:50;3.05;;;2.58;;
20348;SDS011;10332;50.208;18.988;2022-07-26T00:04:17;3.50;;;2.95;;
20348;SDS011;10332;50.208;18.988;2022-07-26T00:06:45;4.13;;;2.90;;
20348;SDS011;10332;50.208;18.988;2022-07-26T00:09:12;5.90;;;2.92;;
20348;SDS011;10332;50.208;18.988;2022-07-26T00:11:40;3.67;;;2.80;;
20348;SDS011;10332;50.208;18.988;2022-07-26T00:14:08;3.90;;;3.17;;
20348;SDS011;10332;50.208;18.988;2022-07-26T00:16:37;6.57;;;3.50;;
20348;SDS011;10332;50.208;18.988;2022-07-26T00:19:06;5.70;;;3.55;;
20348;SDS011;10332;50.208;18.988;2022-07-26T00:21:34;6.18;;;3.58;;
20348;SDS011;10332;50.208;18.988;2022-07-26T00:24:06;4.57;;;3.35;;
20348;SDS011;10332;50.208;18.988;2022-07-26T00:26:35;5.78;;;3.55;;
20348;SDS011;10332;50.208;18.988;2022-07-26T00:29:03;4.20;;;3.30;;
20348;SDS011;10332;50.208;18.988;2022-07-26T00:31:31;4.53;;;3.42;;
20348;SDS011;10332;50.208;18.988;2022-07-26T00:33:59;4.05;;;3.17;;
20348;SDS011;10332;50.208;18.988;2022-07-26T00:36:27;6.13;;;3.35;;
20348;SDS011;10332;50.208;18.988;2022-07-26T00:38:55;5.72;;;3.47;;
20348;SDS011;10332;50.208;18.988;2022-07-26T00:41:22;5.45;;;3.75;;
20348;SDS011;10332;50.208;18.988;2022-07-26T00:43:57;4.57;;;3.17;;
20348;SDS011;10332;50.208;18.988;2022-07-26T00:46:25;4.20;;;3.30;;
20348;SDS011;10332;50.208;18.988;2022-07-26T00:48:53;5.00;;;3.20;;
20348;SDS011;10332;50.208;18.988;2022-07-26T00:51:21;3.83;;;3.28;;
20348;SDS011;10332;50.208;18.988;2022-07-26T00:53:49;5.50;;;3.65;;
20348;SDS011;10332;50.208;18.988;2022-07-26T00:56:17;4.30;;;3.05;;
20348;SDS011;10332;50.208;18.988;2022-07-26T00:58:44;4.45;;;3.30;;
20348;SDS011;10332;50.208;18.988;2022-07-26T01:01:12;4.03;;;3.13;;
20348;SDS011;10332;50.208;18.988;2022-07-26T01:03:39;4.03;;;3.30;;
20348;SDS011;10332;50.208;18.988;2022-07-26T01:06:07;4.35;;;3.38;;
20348;SDS011;10332;50.208;18.988;2022-07-26T01:08:35;4.05;;;3.50;;
20348;SDS011;10332;50.208;18.988;2022-07-26T01:11:03;5.90;;;3.53;;
20348;SDS011;10332;50.208;18.988;2022-07-26T01:13:30;7.20;;;4.03;;
20348;SDS011;10332;50.208;18.988;2022-07-26T01:16:01;5.28;;;3.00;;
20348;SDS011;10332;50.208;18.988;2022-07-26T01:18:29;5.30;;;3.60;;
20348;SDS011;10332;50.208;18.988;2022-07-26T01:20:56;4.55;;;3.55;;
20348;SDS011;10332;50.208;18.988;2022-07-26T01:23:40;6.80;;;3.40;;
20348;SDS011;10332;50.208;18.988;2022-07-26T01:26:09;4.60;;;3.60;;
20348;SDS011;10332;50.208;18.988;2022-07-26T01:28:38;4.28;;;3.33;;
20348;SDS011;10332;50.208;18.988;2022-07-26T01:31:07;6.38;;;4.38;;
20348;SDS011;10332;50.208;18.988;2022-07-26T01:33:34;5.13;;;3.65;;
20348;SDS011;10332;50.208;18.988;2022-07-26T01:36:02;4.50;;;3.53;;
20348;SDS011;10332;50.208;18.988;2022-07-26T01:38:29;4.75;;;3.75;;
20348;SDS011;10332;50.208;18.988;2022-07-26T01:40:57;4.90;;;3.35;;
20348;SDS011;10332;50.208;18.988;2022-07-26T01:43:24;4.30;;;3.38;;
20348;SDS011;10332;50.208;18.988;2022-07-26T01:45:53;5.20;;;4.10;;
20348;SDS011;10332;50.208;18.988;2022-07-26T01:48:21;5.47;;;3.80;;
20348;SDS011;10332;50.208;18.988;2022-07-26T01:50:48;5.47;;;3.88;;
20348;SDS011;10332;50.208;18.988;2022-07-26T01:53:16;5.57;;;3.72;;
20348;SDS011;10332;50.208;18.988;2022-07-26T01:55:43;4.68;;;3.78;;
20348;SDS011;10332;50.208;18.988;2022-07-26T01:58:10;5.18;;;3.92;;
20348;SDS011;10332;50.208;18.988;2022-07-26T02:00:38;4.38;;;3.47;;
20348;SDS011;10332;50.208;18.988;2022-07-26T02:03:05;5.45;;;3.33;;
20348;SDS011;10332;50.208;18.988;2022-07-26T02:05:33;4.80;;;3.95;;
20348;SDS011;10332;50.208;18.988;2022-07-26T02:08:00;7.32;;;4.43;;
20348;SDS011;10332;50.208;18.988;2022-07-26T02:10:29;5.70;;;3.95;;
20348;SDS011;10332;50.208;18.988;2022-07-26T02:13:16;5.18;;;4.22;;
20348;SDS011;10332;50.208;18.988;2022-07-26T02:15:43;6.90;;;4.10;;
20348;SDS011;10332;50.208;18.988;2022-07-26T02:18:11;5.78;;;4.10;;
20348;SDS011;10332;50.208;18.988;2022-07-26T02:20:38;5.35;;;4.13;;
20348;SDS011;10332;50.208;18.988;2022-07-26T02:23:06;5.43;;;3.85;;
20348;SDS011;10332;50.208;18.988;2022-07-26T02:25:34;6.68;;;4.07;;
20348;SDS011;10332;50.208;18.988;2022-07-26T02:28:01;6.50;;;4.20;;
20348;SDS011;10332;50.208;18.988;2022-07-26T02:30:28;4.35;;;3.70;;
20348;SDS011;10332;50.208;18.988;2022-07-26T02:32:56;7.32;;;4.47;;
20348;SDS011;10332;50.208;18.988;2022-07-26T02:35:23;6.13;;;4.88;;
20348;SDS011;10332;50.208;18.988;2022-07-26T02:37:50;8.70;;;5.57;;
20348;SDS011;10332;50.208;18.988;2022-07-26T02:40:18;7.18;;;4.70;;
20348;SDS011;10332;50.208;18.988;2022-07-26T02:42:46;5.00;;;3.85;;
20348;SDS011;10332;50.208;18.988;2022-07-26T02:45:13;7.28;;;4.72;;
20348;SDS011;10332;50.208;18.988;2022-07-26T02:47:47;7.20;;;5.90;;
20348;SDS011;10332;50.208;18.988;2022-07-26T02:50:17;5.85;;;4.50;;
20348;SDS011;10332;50.208;18.988;2022-07-26T02:52:47;6.00;;;5.40;;
20348;SDS011;10332;50.208;18.988;2022-07-26T02:55:15;10.40;;;5.70;;
20348;SDS011;10332;50.208;18.988;2022-07-26T02:57:45;5.15;;;4.45;;
20348;SDS011;10332;50.208;18.988;2022-07-26T03:00:18;5.82;;;4.85;;
20348;SDS011;10332;50.208;18.988;2022-07-26T03:02:50;5.97;;;4.45;;
20348;SDS011;10332;50.208;18.988;2022-07-26T03:05:18;6.07;;;4.75;;
20348;SDS011;10332;50.208;18.988;2022-07-26T03:07:46;5.38;;;4.70;;
20348;SDS011;10332;50.208;18.988;2022-07-26T03:10:15;6.60;;;4.68;;
20348;SDS011;10332;50.208;18.988;2022-07-26T03:12:43;7.63;;;5.65;;
20348;SDS011;10332;50.208;18.988;2022-07-26T03:15:10;7.38;;;5.65;;
20348;SDS011;10332;50.208;18.988;2022-07-26T03:17:38;7.88;;;5.20;;
20348;SDS011;10332;50.208;18.988;2022-07-26T03:20:05;7.53;;;4.43;;
20348;SDS011;10332;50.208;18.988;2022-07-26T03:22:34;5.35;;;4.40;;
20348;SDS011;10332;50.208;18.988;2022-07-26T03:25:01;5.47;;;4.30;;
20348;SDS011;10332;50.208;18.988;2022-07-26T03:27:29;8.57;;;5.30;;
20348;SDS011;10332;50.208;18.988;2022-07-26T03:29:56;8.50;;;5.88;;
20348;SDS011;10332;50.208;18.988;2022-07-26T03:32:24;7.47;;;5.97;;
20348;SDS011;10332;50.208;18.988;2022-07-26T03:34:53;6.20;;;4.60;;
20348;SDS011;10332;50.208;18.988;2022-07-26T03:37:20;6.45;;;5.15;;
20348;SDS011;10332;50.208;18.988;2022-07-26T03:39:48;5.03;;;4.38;;
20348;SDS011;10332;50.208;18.988;2022-07-26T03:42:16;7.40;;;4.72;;
20348;SDS011;10332;50.208;18.988;2022-07-26T03:44:43;7.65;;;5.40;;
20348;SDS011;10332;50.208;18.988;2022-07-26T03:47:10;8.18;;;5.43;;
20348;SDS011;10332;50.208;18.988;2022-07-26T03:49:38;6.88;;;5.28;;
20348;SDS011;10332;50.208;18.988;2022-07-26T03:52:05;6.72;;;5.13;;
20348;SDS011;10332;50.208;18.988;2022-07-26T03:54:33;6.50;;;4.50;;
20348;SDS011;10332;50.208;18.988;2022-07-26T03:57:00;5.60;;;4.72;;
20348;SDS011;10332;50.208;18.988;2022-07-26T03:59:27;5.93;;;4.90;;
20348;SDS011;10332;50.208;18.988;2022-07-26T04:01:55;6.07;;;4.63;;
20348;SDS011;10332;50.208;18.988;2022-07-26T04:04:22;5.65;;;4.60;;
20348;SDS011;10332;50.208;18.988;2022-07-26T04:06:50;4.00;;;3.60;;
20348;SDS011;10332;50.208;18.988;2022-07-26T04:09:18;4.22;;;3.80;;
20348;SDS011;10332;50.208;18.988;2022-07-26T04:11:45;4.95;;;4.30;;
20348;SDS011;10332;50.208;18.988;2022-07-26T04:14:14;6.63;;;4.20;;
20348;SDS011;10332;50.208;18.988;2022-07-26T04:16:41;5.95;;;4.53;;
20348;SDS011;10332;50.208;18.988;2022-07-26T04:19:09;5.50;;;4.50;;
20348;SDS011;10332;50.208;18.988;2022-07-26T04:21:36;4.50;;;4.03;;
20348;SDS011;10332;50.208;18.988;2022-07-26T04:24:04;4.15;;;3.72;;
20348;SDS011;10332;50.208;18.988;2022-07-26T04:26:32;5.00;;;3.80;;
20348;SDS011;10332;50.208;18.988;2022-07-26T04:29:00;6.18;;;4.18;;
20348;SDS011;10332;50.208;18.988;2022-07-26T04:31:27;6.40;;;3.85;;
20348;SDS011;10332;50.208;18.988;2022-07-26T04:34:01;6.00;;;4.50;;
20348;SDS011;10332;50.208;18.988;2022-07-26T04:36:29;7.03;;;4.78;;
20348;SDS011;10332;50.208;18.988;2022-07-26T04:38:56;4.78;;;3.97;;
20348;SDS011;10332;50.208;18.988;2022-07-26T04:41:24;5.70;;;4.45;;
20348;SDS011;10332;50.208;18.988;2022-07-26T04:43:51;5.25;;;3.70;;
20348;SDS011;10332;50.208;18.988;2022-07-26T04:46:18;4.88;;;4.00;;
20348;SDS011;10332;50.208;18.988;2022-07-26T04:48:45;6.53;;;4.57;;
20348;SDS011;10332;50.208;18.988;2022-07-26T04:51:13;6.70;;;5.18;;
20348;SDS011;10332;50.208;18.988;2022-07-26T04:53:40;5.90;;;4.80;;
20348;SDS011;10332;50.208;18.988;2022-07-26T04:56:07;5.38;;;4.18;;
20348;SDS011;10332;50.208;18.988;2022-07-26T04:58:35;6.95;;;4.97;;
20348;SDS011;10332;50.208;18.988;2022-07-26T05:01:02;16.63;;;14.25;;
20348;SDS011;10332;50.208;18.988;2022-07-26T05:03:37;9.13;;;5.80;;
20348;SDS011;10332;50.208;18.988;2022-07-26T05:06:23;8.75;;;5.80;;
20348;SDS011;10332;50.208;18.988;2022-07-26T05:08:51;7.05;;;5.63;;
20348;SDS011;10332;50.208;18.988;2022-07-26T05:11:18;6.93;;;5.57;;
20348;SDS011;10332;50.208;18.988;2022-07-26T05:13:45;7.55;;;5.50;;
20348;SDS011;10332;50.208;18.988;2022-07-26T05:16:13;8.38;;;5.28;;
20348;SDS011;10332;50.208;18.988;2022-07-26T05:18:40;19.02;;;12.73;;
20348;SDS011;10332;50.208;18.988;2022-07-26T05:21:15;16.73;;;12.88;;
20348;SDS011;10332;50.208;18.988;2022-07-26T05:23:50;8.15;;;6.38;;
20348;SDS011;10332;50.208;18.988;2022-07-26T05:26:18;8.25;;;5.90;;
20348;SDS011;10332;50.208;18.988;2022-07-26T05:28:48;6.93;;;5.70;;
20348;SDS011;10332;50.208;18.988;2022-07-26T05:31:15;10.15;;;7.45;;
20348;SDS011;10332;50.208;18.988;2022-07-26T05:33:43;10.18;;;7.82;;
20348;SDS011;10332;50.208;18.988;2022-07-26T05:36:10;10.00;;;6.75;;
20348;SDS011;10332;50.208;18.988;2022-07-26T05:38:38;14.27;;;7.07;;
20348;SDS011;10332;50.208;18.988;2022-07-26T05:41:05;8.85;;;6.40;;
20348;SDS011;10332;50.208;18.988;2022-07-26T05:43:33;8.23;;;6.03;;
20348;SDS011;10332;50.208;18.988;2022-07-26T05:46:07;10.68;;;6.47;;
20348;SDS011;10332;50.208;18.988;2022-07-26T05:48:37;10.25;;;7.05;;
20348;SDS011;10332;50.208;18.988;2022-07-26T05:51:05;7.25;;;5.63;;
20348;SDS011;10332;50.208;18.988;2022-07-26T05:53:33;10.95;;;6.60;;
20348;SDS011;10332;50.208;18.988;2022-07-26T05:56:01;11.18;;;7.53;;
20348;SDS011;10332;50.208;18.988;2022-07-26T05:58:29;10.25;;;7.57;;
20348;SDS011;10332;50.208;18.988;2022-07-26T06:00:57;10.45;;;7.28;;
20348;SDS011;10332;50.208;18.988;2022-07-26T06:03:24;8.98;;;6.45;;
20348;SDS011;10332;50.208;18.988;2022-07-26T06:05:53;10.18;;;6.53;;
20348;SDS011;10332;50.208;18.988;2022-07-26T06:08:25;12.25;;;7.00;;
20348;SDS011;10332;50.208;18.988;2022-07-26T06:10:53;11.23;;;7.18;;
20348;SDS011;10332;50.208;18.988;2022-07-26T06:13:21;10.45;;;7.28;;
20348;SDS011;10332;50.208;18.988;2022-07-26T06:15:49;11.45;;;7.25;;
20348;SDS011;10332;50.208;18.988;2022-07-26T06:18:17;13.13;;;8.43;;
20348;SDS011;10332;50.208;18.988;2022-07-26T06:20:45;13.10;;;8.90;;
20348;SDS011;10332;50.208;18.988;2022-07-26T06:23:14;16.27;;;9.02;;
20348;SDS011;10332;50.208;18.988;2022-07-26T06:25:41;11.75;;;7.53;;
20348;SDS011;10332;50.208;18.988;2022-07-26T06:28:09;14.40;;;9.23;;
20348;SDS011;10332;50.208;18.988;2022-07-26T06:30:37;16.27;;;9.90;;
20348;SDS011;10332;50.208;18.988;2022-07-26T06:33:05;13.07;;;9.57;;
20348;SDS011;10332;50.208;18.988;2022-07-26T06:35:33;12.15;;;8.30;;
20348;SDS011;10332;50.208;18.988;2022-07-26T06:38:01;15.20;;;8.80;;
20348;SDS011;10332;50.208;18.988;2022-07-26T06:40:29;13.02;;;8.75;;
20348;SDS011;10332;50.208;18.988;2022-07-26T06:42:56;11.88;;;9.55;;
20348;SDS011;10332;50.208;18.988;2022-07-26T06:45:30;12.90;;;9.27;;
20348;SDS011;10332;50.208;18.988;2022-07-26T06:47:58;10.85;;;8.32;;
20348;SDS011;10332;50.208;18.988;2022-07-26T06:50:25;11.15;;;8.48;;
20348;SDS011;10332;50.208;18.988;2022-07-26T06:52:53;12.43;;;8.63;;
20348;SDS011;10332;50.208;18.988;2022-07-26T06:55:20;11.90;;;9.52;;
20348;SDS011;10332;50.208;18.988;2022-07-26T06:57:48;16.00;;;11.52;;
20348;SDS011;10332;50.208;18.988;2022-07-26T07:00:16;14.40;;;11.75;;
20348;SDS011;10332;50.208;18.988;2022-07-26T07:02:44;27.63;;;20.00;;
20348;SDS011;10332;50.208;18.988;2022-07-26T07:05:11;14.88;;;12.02;;
20348;SDS011;10332;50.208;18.988;2022-07-26T07:07:39;12.77;;;11.45;;
20348;SDS011;10332;50.208;18.988;2022-07-26T07:10:08;15.13;;;12.27;;
20348;SDS011;10332;50.208;18.988;2022-07-26T07:12:37;19.63;;;12.68;;
20348;SDS011;10332;50.208;18.988;2022-07-26T07:15:06;13.38;;;10.75;;
20348;SDS011;10332;50.208;18.988;2022-07-26T07:17:34;11.13;;;9.55;;
20348;SDS011;10332;50.208;18.988;2022-07-26T07:20:01;10.80;;;9.23;;
20348;SDS011;10332;50.208;18.988;2022-07-26T07:22:30;12.57;;;10.73;;
20348;SDS011;10332;50.208;18.988;2022-07-26T07:24:58;12.95;;;11.43;;
20348;SDS011;10332;50.208;18.988;2022-07-26T07:27:28;14.85;;;12.35;;
20348;SDS011;10332;50.208;18.988;2022-07-26T07:29:55;13.57;;;12.07;;
20348;SDS011;10332;50.208;18.988;2022-07-26T07:32:23;28.50;;;23.42;;
20348;SDS011;10332;50.208;18.988;2022-07-26T07:34:51;20.05;;;16.33;;
20348;SDS011;10332;50.208;18.988;2022-07-26T07:37:19;17.48;;;14.70;;
20348;SDS011;10332;50.208;18.988;2022-07-26T07:39:47;16.65;;;13.63;;
20348;SDS011;10332;50.208;18.988;2022-07-26T07:42:16;15.02;;;13.43;;
20348;SDS011;10332;50.208;18.988;2022-07-26T07:44:45;16.05;;;13.63;;
20348;SDS011;10332;50.208;18.988;2022-07-26T07:47:13;18.05;;;13.75;;
20348;SDS011;10332;50.208;18.988;2022-07-26T07:49:40;18.38;;;15.80;;
20348;SDS011;10332;50.208;18.988;2022-07-26T07:52:08;16.70;;;14.90;;
20348;SDS011;10332;50.208;18.988;2022-07-26T07:54:35;17.23;;;15.50;;
20348;SDS011;10332;50.208;18.988;2022-07-26T07:57:03;15.85;;;14.13;;
20348;SDS011;10332;50.208;18.988;2022-07-26T07:59:30;15.88;;;14.23;;
20348;SDS011;10332;50.208;18.988;2022-07-26T08:02:05;17.85;;;15.15;;
20348;SDS011;10332;50.208;18.988;2022-07-26T08:04:33;18.42;;;15.82;;
20348;SDS011;10332;50.208;18.988;2022-07-26T08:07:01;18.08;;;15.25;;
20348;SDS011;10332;50.208;18.988;2022-07-26T08:09:29;16.88;;;15.13;;
20348;SDS011;10332;50.208;18.988;2022-07-26T08:11:59;19.27;;;16.20;;
20348;SDS011;10332;50.208;18.988;2022-07-26T08:14:27;17.77;;;15.88;;
20348;SDS011;10332;50.208;18.988;2022-07-26T08:16:55;23.58;;;19.17;;
20348;SDS011;10332;50.208;18.988;2022-07-26T08:19:22;23.92;;;20.20;;
20348;SDS011;10332;50.208;18.988;2022-07-26T08:22:06;20.65;;;17.42;;
20348;SDS011;10332;50.208;18.988;2022-07-26T08:24:34;19.35;;;16.90;;
20348;SDS011;10332;50.208;18.988;2022-07-26T08:27:01;20.55;;;17.48;;
20348;SDS011;10332;50.208;18.988;2022-07-26T08:29:29;20.48;;;16.48;;
20348;SDS011;10332;50.208;18.988;2022-07-26T08:31:56;21.15;;;16.30;;
20348;SDS011;10332;50.208;18.988;2022-07-26T08:34:24;18.42;;;15.55;;
20348;SDS011;10332;50.208;18.988;2022-07-26T08:36:51;17.60;;;15.70;;
20348;SDS011;10332;50.208;18.988;2022-07-26T08:39:38;17.42;;;15.43;;
20348;SDS011;10332;50.208;18.988;2022-07-26T08:42:15;22.08;;;19.52;;
20348;SDS011;10332;50.208;18.988;2022-07-26T08:44:49;19.50;;;16.23;;
20348;SDS011;10332;50.208;18.988;2022-07-26T08:47:18;21.50;;;18.17;;
20348;SDS011;10332;50.208;18.988;2022-07-26T08:50:08;22.60;;;18.90;;
20348;SDS011;10332;50.208;18.988;2022-07-26T08:52:37;18.23;;;15.18;;
20348;SDS011;10332;50.208;18.988;2022-07-26T08:55:09;18.13;;;15.57;;
20348;SDS011;10332;50.208;18.988;2022-07-26T08:57:42;21.85;;;18.92;;
20348;SDS011;10332;50.208;18.988;2022-07-26T09:02:41;26.90;;;22.55;;
20348;SDS011;10332;50.208;18.988;2022-07-26T09:05:09;16.25;;;13.55;;
20348;SDS011;10332;50.208;18.988;2022-07-26T09:07:38;14.65;;;12.77;;
20348;SDS011;10332;50.208;18.988;2022-07-26T09:10:08;14.50;;;12.95;;
20348;SDS011;10332;50.208;18.988;2022-07-26T09:12:38;16.67;;;12.88;;
20348;SDS011;10332;50.208;18.988;2022-07-26T09:15:16;17.75;;;14.25;;
20348;SDS011;10332;50.208;18.988;2022-07-26T09:17:51;16.38;;;13.95;;
20348;SDS011;10332;50.208;18.988;2022-07-26T09:20:24;18.55;;;15.75;;
20348;SDS011;10332;50.208;18.988;2022-07-26T09:22:56;16.33;;;14.02;;
20348;SDS011;10332;50.208;18.988;2022-07-26T09:25:38;26.40;;;23.08;;
20348;SDS011;10332;50.208;18.988;2022-07-26T09:28:24;24.10;;;20.88;;
20348;SDS011;10332;50.208;18.988;2022-07-26T09:30:56;14.15;;;12.65;;
20348;SDS011;10332;50.208;18.988;2022-07-26T09:33:45;14.13;;;12.60;;
20348;SDS011;10332;50.208;18.988;2022-07-26T09:36:17;14.23;;;12.32;;
20348;SDS011;10332;50.208;18.988;2022-07-26T09:38:46;13.30;;;11.90;;
20348;SDS011;10332;50.208;18.988;2022-07-26T09:43:59;15.00;;;13.05;;
20348;SDS011;10332;50.208;18.988;2022-07-26T09:46:31;14.13;;;12.00;;
20348;SDS011;10332;50.208;18.988;2022-07-26T09:49:17;15.15;;;12.60;;
20348;SDS011;10332;50.208;18.988;2022-07-26T09:51:48;12.80;;;10.38;;
20348;SDS011;10332;50.208;18.988;2022-07-26T09:54:33;11.05;;;9.85;;
20348;SDS011;10332;50.208;18.988;2022-07-26T09:57:02;12.45;;;11.02;;
20348;SDS011;10332;50.208;18.988;2022-07-26T09:59:29;12.45;;;10.57;;
20348;SDS011;10332;50.208;18.988;2022-07-26T10:01:57;17.42;;;11.63;;
20348;SDS011;10332;50.208;18.988;2022-07-26T10:04:26;15.45;;;12.05;;
20348;SDS011;10332;50.208;18.988;2022-07-26T10:06:54;12.57;;;11.27;;
20348;SDS011;10332;50.208;18.988;2022-07-26T10:09:23;19.95;;;14.52;;
20348;SDS011;10332;50.208;18.988;2022-07-26T10:11:59;16.42;;;13.52;;
20348;SDS011;10332;50.208;18.988;2022-07-26T10:16:59;17.35;;;13.75;;
20348;SDS011;10332;50.208;18.988;2022-07-26T10:19:55;12.48;;;11.18;;
20348;SDS011;10332;50.208;18.988;2022-07-26T10:26:00;17.20;;;12.15;;
20348;SDS011;10332;50.208;18.988;2022-07-26T10:28:48;15.10;;;10.82;;
20348;SDS011;10332;50.208;18.988;2022-07-26T10:33:47;13.50;;;12.10;;
20348;SDS011;10332;50.208;18.988;2022-07-26T10:36:20;14.35;;;11.90;;
20348;SDS011;10332;50.208;18.988;2022-07-26T10:38:57;11.40;;;10.27;;
20348;SDS011;10332;50.208;18.988;2022-07-26T10:41:38;11.80;;;10.13;;
20348;SDS011;10332;50.208;18.988;2022-07-26T10:49:37;11.07;;;9.70;;
20348;SDS011;10332;50.208;18.988;2022-07-26T10:52:11;15.80;;;13.13;;
20348;SDS011;10332;50.208;18.988;2022-07-26T10:57:34;14.63;;;12.23;;
20348;SDS011;10332;50.208;18.988;2022-07-26T11:00:08;13.35;;;10.73;;
20348;SDS011;10332;50.208;18.988;2022-07-26T11:02:40;13.48;;;10.07;;
20348;SDS011;10332;50.208;18.988;2022-07-26T11:05:11;9.73;;;8.02;;
20348;SDS011;10332;50.208;18.988;2022-07-26T11:07:58;8.55;;;7.63;;
20348;SDS011;10332;50.208;18.988;2022-07-26T11:10:40;9.82;;;8.43;;
20348;SDS011;10332;50.208;18.988;2022-07-26T11:13:11;11.85;;;8.23;;
20348;SDS011;10332;50.208;18.988;2022-07-26T11:16:00;10.85;;;8.75;;
20348;SDS011;10332;50.208;18.988;2022-07-26T11:18:31;11.35;;;8.75;;
20348;SDS011;10332;50.208;18.988;2022-07-26T11:21:12;9.27;;;8.38;;
20348;SDS011;10332;50.208;18.988;2022-07-26T11:23:45;9.02;;;7.72;;
20348;SDS011;10332;50.208;18.988;2022-07-26T11:26:15;10.52;;;8.65;;
20348;SDS011;10332;50.208;18.988;2022-07-26T11:31:41;9.23;;;7.82;;
20348;SDS011;10332;50.208;18.988;2022-07-26T11:34:24;9.55;;;7.78;;
20348;SDS011;10332;50.208;18.988;2022-07-26T11:37:00;9.77;;;7.60;;
20348;SDS011;10332;50.208;18.988;2022-07-26T11:39:32;13.60;;;10.30;;
20348;SDS011;10332;50.208;18.988;2022-07-26T11:42:06;18.98;;;12.98;;
20348;SDS011;10332;50.208;18.988;2022-07-26T11:44:37;16.60;;;13.35;;
20348;SDS011;10332;50.208;18.988;2022-07-26T11:47:13;12.02;;;9.25;;
20348;SDS011;10332;50.208;18.988;2022-07-26T11:49:51;12.63;;;9.85;;
20348;SDS011;10332;50.208;18.988;2022-07-26T11:52:40;8.73;;;7.63;;
20348;SDS011;10332;50.208;18.988;2022-07-26T11:55:08;12.10;;;9.73;;
20348;SDS011;10332;50.208;18.988;2022-07-26T11:57:35;11.32;;;10.02;;
20348;SDS011;10332;50.208;18.988;2022-07-26T12:00:04;15.75;;;12.93;;
20348;SDS011;10332;50.208;18.988;2022-07-26T12:02:32;11.55;;;9.68;;
20348;SDS011;10332;50.208;18.988;2022-07-26T12:07:54;19.77;;;16.23;;
20348;SDS011;10332;50.208;18.988;2022-07-26T12:10:23;18.00;;;14.77;;
20348;SDS011;10332;50.208;18.988;2022-07-26T12:15:47;27.80;;;19.38;;
20348;SDS011;10332;50.208;18.988;2022-07-26T12:18:24;27.52;;;18.80;;
20348;SDS011;10332;50.208;18.988;2022-07-26T12:23:44;14.80;;;11.82;;
20348;SDS011;10332;50.208;18.988;2022-07-26T12:28:54;19.70;;;14.45;;
20348;SDS011;10332;50.208;18.988;2022-07-26T12:31:24;12.80;;;9.60;;
20348;SDS011;10332;50.208;18.988;2022-07-26T12:33:57;9.95;;;7.55;;
20348;SDS011;10332;50.208;18.988;2022-07-26T12:36:25;13.20;;;10.35;;
20348;SDS011;10332;50.208;18.988;2022-07-26T12:38:56;13.95;;;10.35;;
20348;SDS011;10332;50.208;18.988;2022-07-26T12:41:35;11.30;;;7.95;;
20348;SDS011;10332;50.208;18.988;2022-07-26T12:44:05;13.00;;;9.02;;
20348;SDS011;10332;50.208;18.988;2022-07-26T12:46:38;25.10;;;19.33;;
20348;SDS011;10332;50.208;18.988;2022-07-26T12:49:06;12.18;;;9.05;;
20348;SDS011;10332;50.208;18.988;2022-07-26T12:51:33;14.32;;;12.25;;
20348;SDS011;10332;50.208;18.988;2022-07-26T12:54:02;13.57;;;9.70;;
20348;SDS011;10332;50.208;18.988;2022-07-26T12:56:32;13.43;;;10.38;;
20348;SDS011;10332;50.208;18.988;2022-07-26T12:59:00;9.80;;;7.15;;
20348;SDS011;10332;50.208;18.988;2022-07-26T13:01:28;13.85;;;8.40;;
20348;SDS011;10332;50.208;18.988;2022-07-26T13:03:57;9.88;;;7.00;;
20348;SDS011;10332;50.208;18.988;2022-07-26T13:06:25;14.20;;;9.70;;
20348;SDS011;10332;50.208;18.988;2022-07-26T13:08:52;13.85;;;10.40;;
20348;SDS011;10332;50.208;18.988;2022-07-26T13:11:20;13.32;;;11.45;;
20348;SDS011;10332;50.208;18.988;2022-07-26T13:13:47;12.18;;;7.80;;
20348;SDS011;10332;50.208;18.988;2022-07-26T13:16:15;8.32;;;6.97;;
20348;SDS011;10332;50.208;18.988;2022-07-26T13:18:42;9.45;;;7.80;;
20348;SDS011;10332;50.208;18.988;2022-07-26T13:21:10;7.30;;;6.28;;
20348;SDS011;10332;50.208;18.988;2022-07-26T13:23:37;6.78;;;5.68;;
20348;SDS011;10332;50.208;18.988;2022-07-26T13:26:05;8.00;;;6.00;;
20348;SDS011;10332;50.208;18.988;2022-07-26T13:28:34;9.15;;;5.85;;
20348;SDS011;10332;50.208;18.988;2022-07-26T13:31:03;6.78;;;5.32;;
20348;SDS011;10332;50.208;18.988;2022-07-26T13:33:32;7.13;;;5.45;;
20348;SDS011;10332;50.208;18.988;2022-07-26T13:35:59;5.38;;;4.78;;
20348;SDS011;10332;50.208;18.988;2022-07-26T13:38:27;6.28;;;5.00;;
20348;SDS011;10332;50.208;18.988;2022-07-26T13:40:59;9.15;;;6.65;;
20348;SDS011;10332;50.208;18.988;2022-07-26T13:43:30;5.95;;;5.35;;
20348;SDS011;10332;50.208;18.988;2022-07-26T13:45:58;6.65;;;5.30;;
20348;SDS011;10332;50.208;18.988;2022-07-26T13:48:25;8.15;;;5.68;;
20348;SDS011;10332;50.208;18.988;2022-07-26T13:50:54;6.95;;;5.07;;
20348;SDS011;10332;50.208;18.988;2022-07-26T13:53:23;8.40;;;5.70;;
20348;SDS011;10332;50.208;18.988;2022-07-26T13:55:51;6.20;;;4.70;;
20348;SDS011;10332;50.208;18.988;2022-07-26T13:58:18;8.63;;;5.10;;
20348;SDS011;10332;50.208;18.988;2022-07-26T14:00:47;5.95;;;4.72;;
20348;SDS011;10332;50.208;18.988;2022-07-26T14:03:14;6.20;;;4.43;;
20348;SDS011;10332;50.208;18.988;2022-07-26T14:05:42;6.35;;;4.88;;
20348;SDS011;10332;50.208;18.988;2022-07-26T14:08:10;4.72;;;3.95;;
20348;SDS011;10332;50.208;18.988;2022-07-26T14:10:38;5.20;;;4.65;;
20348;SDS011;10332;50.208;18.988;2022-07-26T14:13:06;4.65;;;4.22;;
20348;SDS011;10332;50.208;18.988;2022-07-26T14:15:34;4.70;;;3.90;;
20348;SDS011;10332;50.208;18.988;2022-07-26T14:18:02;5.43;;;4.70;;
20348;SDS011;10332;50.208;18.988;2022-07-26T14:20:30;5.93;;;4.40;;
20348;SDS011;10332;50.208;18.988;2022-07-26T14:22:57;6.60;;;4.13;;
20348;SDS011;10332;50.208;18.988;2022-07-26T14:25:26;5.97;;;4.50;;
20348;SDS011;10332;50.208;18.988;2022-07-26T14:27:54;3.50;;;3.13;;
20348;SDS011;10332;50.208;18.988;2022-07-26T14:30:21;6.40;;;4.72;;
20348;SDS011;10332;50.208;18.988;2022-07-26T14:32:49;6.38;;;4.50;;
20348;SDS011;10332;50.208;18.988;2022-07-26T14:35:17;7.25;;;5.97;;
20348;SDS011;10332;50.208;18.988;2022-07-26T14:37:44;11.50;;;7.43;;
20348;SDS011;10332;50.208;18.988;2022-07-26T14:40:12;6.28;;;5.03;;
20348;SDS011;10332;50.208;18.988;2022-07-26T14:42:42;7.78;;;6.07;;
20348;SDS011;10332;50.208;18.988;2022-07-26T14:45:11;7.85;;;6.43;;
20348;SDS011;10332;50.208;18.988;2022-07-26T14:47:40;7.20;;;5.30;;
20348;SDS011;10332;50.208;18.988;2022-07-26T14:50:08;5.90;;;4.70;;
20348;SDS011;10332;50.208;18.988;2022-07-26T14:52:45;8.25;;;5.55;;
20348;SDS011;10332;50.208;18.988;2022-07-26T14:55:14;6.80;;;6.10;;
20348;SDS011;10332;50.208;18.988;2022-07-26T14:57:50;10.07;;;6.10;;
20348;SDS011;10332;50.208;18.988;2022-07-26T15:00:17;6.80;;;4.40;;
20348;SDS011;10332;50.208;18.988;2022-07-26T15:02:46;5.53;;;4.63;;
20348;SDS011;10332;50.208;18.988;2022-07-26T15:05:15;7.03;;;5.75;;
20348;SDS011;10332;50.208;18.988;2022-07-26T15:07:43;9.05;;;7.22;;
20348;SDS011;10332;50.208;18.988;2022-07-26T15:10:12;8.82;;;6.28;;
20348;SDS011;10332;50.208;18.988;2022-07-26T15:12:40;7.68;;;6.00;;
20348;SDS011;10332;50.208;18.988;2022-07-26T15:15:09;6.28;;;4.93;;